Terminal Aerodrome Forecast
Issued by NWS

Current Version | Previous Version | Text Only | Print | Product List | Glossary On
Versions: 1 2 3 4 5 6 7 8 9 10 11 12
000
FTUS42 KTBW 012342
TAFLAL
TAF
KLAL 012342Z 0200/0224 11009KT P6SM SCT060
     FM020300 11008KT P6SM FEW050
     FM020900 14005KT P6SM SCT007 SCT250
     FM021400 16007KT P6SM SCT035 SCT120
     FM021900 17006KT P6SM BKN050
     FM022000 23008KT P6SM VCTS BKN050CB
      AMD NOT SKED 0202/0211=

USA.gov is the U.S. government's official web portal to all federal, state and local government web resources and services.